Modesto City Co-Harry Sham Field Modesto US
ICAO: KMOD
IATA: MOD
Category: Medium
Scheduled Services: Yes

Elevation: 97 ft
TransAlt. 18000 ft.

Airport Communications:
NORCAL APP/DEP:36.32
NORCAL APP/DEP:120.95
ASOS:127.7
ATIS:127.7
CTAF:125.3
GND:121.7
RANCHO RDO:114.6
TWR:125.3
UNICOM:122.95

KMOD Zoom In..

If you have problems with the map follow the link
https://www.worldairports.se/pages/airport.php?
ICAO=KMOD

Runways:

(A) RW 10L length 5904 ft width 150 ft
---- / hdg 108

(B) RW 10R length 3464 ft width 100 ft
---- / hdg 108

(C) RW 28L length 3464 ft width 100 ft
---- / hdg 288

(D) RW 28R length 5904 ft width 150 ft
ILS 111.90 / hdg 288

Location; KMOD
Day. 21 / Time. 03.53 Zulu
* Altimeter: 30.02
* Temperature: 09° c. 48.2°f.
* Wind from: 040° Speed 05 kn.
Dewpoint: 07° c.
Visibility: 5 Statute Miles.
Clouds: Broken 8000 ft.
Conditions: Mist.

KMOD 210353Z 04005KT 5SM BR BKN080 09/07 A3002 RMK AO2 SLP166 T00890067


Wind From 040°
Speed 05 kn.

 
 
jpsmedia worldairports.se 2020   terms of use